createdAt,value
2019-01-12T00:00:50.609Z,101154.05
2019-01-12T00:03:19.719Z,101155.69
2019-01-12T00:05:48.775Z,101152.57
2019-01-12T00:11:21.842Z,101155.55
2019-01-12T00:14:00.065Z,101164.80
2019-01-12T00:19:22.342Z,101165.09
2019-01-12T00:21:53.845Z,101168.16
2019-01-12T00:29:39.576Z,101145.36
2019-01-12T00:32:08.530Z,101157.77
2019-01-12T00:34:38.475Z,101152.58
2019-01-12T00:37:09.333Z,101148.63
2019-01-12T00:42:54.569Z,101151.36
2019-01-12T00:45:42.672Z,101154.05
2019-01-12T00:48:11.727Z,101154.32
2019-01-12T00:51:01.495Z,101156.59
2019-01-12T00:53:33.123Z,101148.11
2019-01-12T00:58:36.878Z,101166.84
2019-01-12T01:01:05.981Z,101174.16
2019-01-12T01:03:34.996Z,101171.41
2019-01-12T01:06:04.438Z,101174.86
2019-01-12T01:08:33.263Z,101173.16
2019-01-12T01:11:02.223Z,101170.38
2019-01-12T01:13:31.138Z,101172.92
2019-01-12T01:16:00.114Z,101171.17
2019-01-12T01:18:29.086Z,101171.74
2019-01-12T01:20:57.993Z,101170.13
2019-01-12T01:23:26.928Z,101172.91
2019-01-12T01:25:55.895Z,101165.80
2019-01-12T01:28:24.843Z,101175.00
2019-01-12T01:30:53.796Z,101176.78
2019-01-12T01:33:27.954Z,101179.72
2019-01-12T01:35:53.507Z,101182.98
2019-01-12T01:38:22.460Z,101184.20
2019-01-12T01:40:51.426Z,101181.03
2019-01-12T01:43:20.382Z,101182.31
2019-01-12T01:45:49.356Z,101186.23
2019-01-12T01:48:18.297Z,101181.55
2019-01-12T01:50:47.166Z,101183.97
2019-01-12T01:53:16.088Z,101190.56
2019-01-12T01:55:44.923Z,101191.38
2019-01-12T01:58:13.864Z,101192.22
2019-01-12T02:00:42.875Z,101193.86
2019-01-12T02:03:11.901Z,101189.76
2019-01-12T02:05:40.765Z,101189.84
2019-01-12T02:08:09.782Z,101190.25
2019-01-12T02:10:38.725Z,101193.99
2019-01-12T02:13:07.720Z,101194.52
2019-01-12T02:15:36.659Z,101189.65
2019-01-12T02:18:05.756Z,101187.96
2019-01-12T02:20:34.698Z,101187.02
2019-01-12T02:23:03.662Z,101180.50
2019-01-12T02:25:32.496Z,101189.31
2019-01-12T02:28:01.494Z,101188.42
2019-01-12T02:30:30.352Z,101187.05
2019-01-12T02:32:59.324Z,101194.08
2019-01-12T02:35:28.262Z,101186.91
2019-01-12T02:37:57.225Z,101192.37
2019-01-12T02:40:26.169Z,101189.60
2019-01-12T02:42:55.112Z,101188.19
2019-01-12T02:45:24.063Z,101188.89
2019-01-12T02:47:53.055Z,101195.19
2019-01-12T02:50:21.994Z,101184.22
2019-01-12T02:52:50.849Z,101182.70
2019-01-12T02:58:51.354Z,101182.19
2019-01-12T03:01:20.227Z,101183.74
2019-01-12T03:07:33.321Z,101181.22
2019-01-12T03:10:02.014Z,101175.62
2019-01-12T03:12:30.657Z,101178.83
2019-01-12T03:14:59.309Z,101182.80
2019-01-12T03:17:27.986Z,101181.27
2019-01-12T03:19:56.622Z,101178.66
2019-01-12T03:22:25.333Z,101177.48
2019-01-12T03:24:53.977Z,101175.84
2019-01-12T03:27:22.613Z,101171.17
2019-01-12T03:29:51.328Z,101172.75
2019-01-12T03:32:20.009Z,101171.29
2019-01-12T03:34:48.618Z,101171.20
2019-01-12T03:37:17.232Z,101173.70
2019-01-12T03:39:45.879Z,101173.91
2019-01-12T03:42:14.521Z,101175.66
2019-01-12T03:44:43.164Z,101168.33
2019-01-12T03:47:11.884Z,101167.61
2019-01-12T03:49:40.516Z,101171.59
2019-01-12T03:52:09.245Z,101166.75
2019-01-12T03:54:37.870Z,101169.94
2019-01-12T03:57:06.624Z,101164.88
2019-01-12T03:59:35.298Z,101161.61
2019-01-12T04:02:03.964Z,101165.23
2019-01-12T04:04:32.675Z,101159.08
2019-01-12T04:07:01.274Z,101157.75
2019-01-12T04:09:29.910Z,101151.38
2019-01-12T04:11:58.538Z,101146.64
2019-01-12T04:14:27.188Z,101148.64
2019-01-12T04:16:55.898Z,101144.59
2019-01-12T04:19:24.536Z,101141.87
2019-01-12T04:21:53.191Z,101140.62
2019-01-12T04:24:21.847Z,101138.05
2019-01-12T04:26:50.537Z,101145.06
2019-01-12T04:29:19.203Z,101137.61
2019-01-12T04:31:47.902Z,101137.61
2019-01-12T04:34:16.670Z,101133.69
2019-01-12T04:36:45.330Z,101133.83
2019-01-12T04:39:13.990Z,101137.11
2019-01-12T04:41:42.601Z,101131.11
2019-01-12T04:44:11.340Z,101129.71
2019-01-12T04:46:40.064Z,101124.64
2019-01-12T04:49:08.685Z,101125.52
2019-01-12T04:51:37.454Z,101124.86
2019-01-12T04:54:06.216Z,101130.41
2019-01-12T04:56:34.896Z,101124.86
2019-01-12T04:59:03.515Z,101130.08
2019-01-12T05:01:32.127Z,101123.87
2019-01-12T05:04:00.778Z,101119.08
2019-01-12T05:06:29.483Z,101117.60
2019-01-12T05:08:58.120Z,101116.69
2019-01-12T05:11:26.751Z,101120.73
2019-01-12T05:14:14.623Z,101114.81
2019-01-12T05:19:10.543Z,101118.73
2019-01-12T05:21:39.180Z,101127.87
2019-01-12T05:24:07.794Z,101122.75
2019-01-12T05:26:36.462Z,101121.42
2019-01-12T05:29:05.190Z,101128.01
2019-01-12T05:31:33.892Z,101126.66
2019-01-12T05:34:02.539Z,101123.52
2019-01-12T05:36:31.198Z,101137.46
2019-01-12T05:38:59.843Z,101127.64
2019-01-12T05:41:28.475Z,101129.81
2019-01-12T05:43:57.093Z,101119.92
2019-01-12T05:46:25.717Z,101122.34
2019-01-12T05:48:54.354Z,101122.20
2019-01-12T05:51:23.067Z,101119.62
2019-01-12T05:53:51.679Z,101121.02
2019-01-12T05:56:20.378Z,101122.42
2019-01-12T05:58:49.077Z,101123.96
2019-01-12T06:01:17.749Z,101126.13
2019-01-12T06:03:46.369Z,101121.23
2019-01-12T06:06:14.994Z,101127.30
2019-01-12T06:08:43.612Z,101129.86
2019-01-12T06:11:12.366Z,101133.91
2019-01-12T06:13:41.005Z,101130.08
2019-01-12T06:16:09.776Z,101128.34
2019-01-12T06:18:38.412Z,101123.73
2019-01-12T06:21:07.095Z,101124.50
2019-01-12T06:23:54.953Z,101127.70
2019-01-12T06:26:23.718Z,101127.28
2019-01-12T06:28:52.379Z,101126.50
2019-01-12T06:31:21.080Z,101120.84
2019-01-12T06:33:49.743Z,101124.06
2019-01-12T06:36:18.497Z,101127.19
2019-01-12T06:38:47.127Z,101127.47
2019-01-12T06:41:15.765Z,101132.41
2019-01-12T06:43:44.450Z,101133.13
2019-01-12T06:46:13.090Z,101131.02
2019-01-12T06:48:41.724Z,101130.90
2019-01-12T06:51:10.431Z,101130.02
2019-01-12T06:53:39.183Z,101128.30
2019-01-12T06:56:10.998Z,101132.45
2019-01-12T06:58:38.291Z,101127.41
2019-01-12T07:01:06.914Z,101135.71
2019-01-12T07:03:35.645Z,101130.02
2019-01-12T07:06:04.288Z,101134.53
2019-01-12T07:08:33.031Z,101132.03
2019-01-12T07:11:01.637Z,101139.36
2019-01-12T07:13:30.354Z,101137.75
2019-01-12T07:15:58.999Z,101143.41
2019-01-12T07:18:27.640Z,101139.37
2019-01-12T07:20:56.257Z,101135.25
2019-01-12T07:23:24.881Z,101129.32
2019-01-12T07:25:53.578Z,101139.84
2019-01-12T07:28:22.300Z,101145.41
2019-01-12T07:30:50.991Z,101140.95
2019-01-12T07:33:19.611Z,101145.00
2019-01-12T07:35:48.267Z,101145.98
2019-01-12T07:38:16.902Z,101148.13
2019-01-12T07:40:45.558Z,101155.19
2019-01-12T07:43:14.180Z,101153.09
2019-01-12T07:45:42.856Z,101157.40
2019-01-12T07:48:11.510Z,101158.31
2019-01-12T07:50:40.159Z,101158.38
2019-01-12T07:53:08.821Z,101155.47
2019-01-12T07:55:37.500Z,101143.89
2019-01-12T07:58:06.288Z,101149.88
2019-01-12T08:00:34.933Z,101152.75
2019-01-12T08:03:03.706Z,101152.11
2019-01-12T08:05:32.328Z,101155.24
2019-01-12T08:10:59.893Z,101145.28
2019-01-12T08:13:28.668Z,101152.37
2019-01-12T08:15:57.314Z,101153.57
2019-01-12T08:18:25.934Z,101145.75
2019-01-12T08:20:54.556Z,101142.17
2019-01-12T08:23:23.188Z,101132.53
2019-01-12T08:25:51.895Z,101131.27
2019-01-12T08:28:20.529Z,101135.14
2019-01-12T08:30:49.200Z,101126.33
2019-01-12T08:33:17.814Z,101121.17
2019-01-12T08:35:46.651Z,101124.44
2019-01-12T08:38:15.350Z,101128.41
2019-01-12T08:40:43.998Z,101127.40
2019-01-12T08:43:12.626Z,101126.45
2019-01-12T08:45:41.282Z,101125.49
2019-01-12T08:48:09.965Z,101119.39
2019-01-12T08:50:38.574Z,101114.11
2019-01-12T08:53:07.334Z,101126.96
2019-01-12T08:55:35.943Z,101124.67
2019-01-12T08:58:04.650Z,101118.83
2019-01-12T09:00:33.269Z,101124.23
2019-01-12T09:03:01.968Z,101119.47
2019-01-12T09:05:30.720Z,101108.95
2019-01-12T09:07:59.358Z,101108.84
2019-01-12T09:10:28.077Z,101113.67
2019-01-12T09:12:56.792Z,101110.97
2019-01-12T09:15:25.442Z,101105.25
2019-01-12T09:18:14.856Z,101100.98
2019-01-12T09:20:43.662Z,101094.99
2019-01-12T09:23:57.750Z,101096.89
2019-01-12T09:25:43.883Z,101097.10
2019-01-12T09:28:12.613Z,101097.19
2019-01-12T09:30:41.374Z,101091.15
2019-01-12T09:33:10.156Z,101088.21
2019-01-12T09:35:38.839Z,101079.49
2019-01-12T09:38:07.544Z,101073.70
2019-01-12T09:40:36.411Z,101072.89
2019-01-12T09:43:05.221Z,101075.39
2019-01-12T09:45:33.897Z,101072.41
2019-01-12T09:48:02.747Z,101059.98
2019-01-12T09:50:31.412Z,101062.47
2019-01-12T09:53:00.115Z,101058.16
2019-01-12T09:55:31.297Z,101058.45
2019-01-12T09:57:59.976Z,101060.46
2019-01-12T10:00:28.739Z,101054.39
2019-01-12T10:02:57.580Z,101046.09
2019-01-12T10:05:26.351Z,101050.97
2019-01-12T10:07:55.095Z,101043.69
2019-01-12T10:10:23.965Z,101032.06
2019-01-12T10:12:52.729Z,101036.25
2019-01-12T10:15:21.601Z,101031.78
2019-01-12T10:17:50.306Z,101035.92
2019-01-12T10:23:33.323Z,101057.61
2019-01-12T10:26:02.055Z,101055.80
2019-01-12T10:28:30.732Z,101038.09
2019-01-12T10:30:59.521Z,101012.23
2019-01-12T10:33:28.244Z,101004.47
2019-01-12T10:35:56.930Z,101005.94
2019-01-12T10:38:25.570Z,100985.56
2019-01-12T10:40:54.286Z,100991.88
2019-01-12T10:43:22.927Z,100996.37
2019-01-12T10:51:27.542Z,100989.18
2019-01-12T10:53:56.179Z,100988.34
2019-01-12T10:56:24.796Z,100979.97
2019-01-12T10:58:54.267Z,100973.17
2019-01-12T11:01:22.997Z,100966.95
2019-01-12T11:03:51.616Z,100958.79
2019-01-12T11:06:20.514Z,100954.48
2019-01-12T11:08:49.135Z,100959.63
2019-01-12T11:11:17.822Z,100945.03
2019-01-12T11:13:46.523Z,100939.20
2019-01-12T11:16:15.305Z,100931.08
2019-01-12T11:18:43.950Z,100939.81
2019-01-12T11:21:12.653Z,100937.91
2019-01-12T11:23:41.379Z,100942.34
2019-01-12T11:26:09.979Z,100935.02
2019-01-12T11:28:38.620Z,100933.86
2019-01-12T11:31:07.362Z,100933.86
2019-01-12T11:33:36.008Z,100923.96
2019-01-12T11:36:04.733Z,100906.42
2019-01-12T11:38:33.346Z,100899.66
2019-01-12T11:41:02.006Z,100893.98
2019-01-12T11:43:30.715Z,100894.50
2019-01-12T11:45:59.380Z,100880.44
2019-01-12T11:48:27.987Z,100891.88
2019-01-12T11:51:05.322Z,100869.82
2019-01-12T11:53:34.297Z,100872.67
2019-01-12T11:56:03.056Z,100875.70
2019-01-12T11:58:31.922Z,100871.59
2019-01-12T12:01:00.531Z,100864.83
2019-01-12T12:03:29.243Z,100857.59
2019-01-12T12:05:57.877Z,100855.53
2019-01-12T12:08:26.566Z,100864.83
2019-01-12T12:10:55.325Z,100853.56
2019-01-12T12:13:24.012Z,100850.55
2019-01-12T12:15:52.654Z,100832.84
2019-01-12T12:18:21.369Z,100833.05
2019-01-12T12:20:50.144Z,100832.13
2019-01-12T12:23:18.886Z,100833.97
2019-01-12T12:25:47.557Z,100820.94
2019-01-12T12:28:16.280Z,100809.63
2019-01-12T12:30:44.944Z,100807.51
2019-01-12T12:33:13.788Z,100799.03
2019-01-12T12:35:42.445Z,100791.92
2019-01-12T12:38:11.167Z,100791.91
2019-01-12T12:40:43.329Z,100789.90
2019-01-12T12:43:12.039Z,100786.73
2019-01-12T12:45:40.803Z,100773.76
2019-01-12T12:48:09.853Z,100758.48
2019-01-12T12:50:38.635Z,100760.86
2019-01-12T12:53:07.384Z,100750.54
2019-01-12T12:55:35.985Z,100752.24
2019-01-12T12:58:04.954Z,100737.83
2019-01-12T13:00:34.405Z,100730.67
2019-01-12T13:03:03.174Z,100728.00
2019-01-12T13:05:31.893Z,100723.14
2019-01-12T13:08:00.688Z,100728.45
2019-01-12T13:10:30.951Z,100733.84
2019-01-12T13:12:59.672Z,100728.28
2019-01-12T13:15:28.361Z,100720.91
2019-01-12T13:17:57.028Z,100711.64
2019-01-12T13:20:25.731Z,100712.27
2019-01-12T13:22:54.344Z,100700.02
2019-01-12T13:25:23.078Z,100693.70
2019-01-12T13:27:51.833Z,100694.48
2019-01-12T13:30:22.682Z,100701.77
2019-01-12T13:32:51.587Z,100696.34
2019-01-12T13:35:20.842Z,100699.66
2019-01-12T13:37:49.797Z,100700.63
2019-01-12T13:40:37.808Z,100691.06
2019-01-12T13:43:06.649Z,100693.38
2019-01-12T13:45:35.406Z,100676.91
2019-01-12T13:48:04.333Z,100679.19
2019-01-12T13:50:33.105Z,100668.44
2019-01-12T13:53:01.791Z,100661.88
2019-01-12T13:55:30.489Z,100659.52
2019-01-12T13:57:59.182Z,100658.21
2019-01-12T14:00:32.681Z,100646.73
2019-01-12T14:03:01.786Z,100640.64
2019-01-12T14:05:32.120Z,100640.96
2019-01-12T14:08:00.973Z,100640.67
2019-01-12T14:13:20.607Z,100641.59
2019-01-12T14:15:49.672Z,100633.62
2019-01-12T14:18:38.606Z,100621.91
2019-01-12T14:24:02.319Z,100621.52
2019-01-12T14:26:31.893Z,100602.45
2019-01-12T14:29:00.989Z,100599.96
2019-01-12T14:31:32.595Z,100599.30
2019-01-12T14:34:02.511Z,100590.19
2019-01-12T14:36:32.681Z,100583.69
2019-01-12T14:50:18.956Z,100558.45
2019-01-12T14:52:48.068Z,100559.67
2019-01-12T14:55:17.894Z,100551.06
2019-01-12T14:58:07.481Z,100545.84
2019-01-12T15:00:36.670Z,100539.24
2019-01-12T15:03:05.701Z,100537.25
2019-01-12T15:05:38.753Z,100531.13
2019-01-12T15:10:57.578Z,100538.59
2019-01-12T15:13:26.242Z,100533.13
2019-01-12T15:15:57.464Z,100530.78
2019-01-12T15:18:26.698Z,100527.28
2019-01-12T15:20:57.194Z,100525.08
2019-01-12T15:23:26.045Z,100519.47
2019-01-12T15:29:14.094Z,100515.28
2019-01-12T15:34:19.089Z,100513.73
2019-01-12T15:39:43.832Z,100513.09
2019-01-12T15:42:28.113Z,100509.29
2019-01-12T15:44:57.190Z,100497.02
2019-01-12T15:47:26.187Z,100497.05
2019-01-12T15:49:55.078Z,100489.23
2019-01-12T15:52:23.823Z,100492.70
2019-01-12T15:54:52.578Z,100492.05
2019-01-12T15:57:21.297Z,100491.58
2019-01-12T15:59:49.931Z,100491.37
2019-01-12T16:02:18.702Z,100490.52
2019-01-12T16:04:47.379Z,100493.18
2019-01-12T16:07:16.059Z,100494.02
2019-01-12T16:09:47.222Z,100485.22
2019-01-12T16:12:16.253Z,100484.41
2019-01-12T16:14:44.925Z,100489.73
2019-01-12T16:17:13.682Z,100491.19
2019-01-12T16:19:42.531Z,100496.83
2019-01-12T16:22:11.188Z,100491.72
2019-01-12T16:24:39.824Z,100488.23
2019-01-12T16:27:08.595Z,100484.16
2019-01-12T16:29:37.227Z,100488.07
2019-01-12T16:32:20.827Z,100486.77
2019-01-12T16:34:36.341Z,100487.87
2019-01-12T16:37:05.146Z,100492.59
2019-01-12T16:39:33.756Z,100483.36
2019-01-12T16:42:02.679Z,100485.91
2019-01-12T16:44:31.335Z,100480.28
2019-01-12T16:46:59.987Z,100478.30
2019-01-12T16:49:28.716Z,100475.49
2019-01-12T16:51:57.389Z,100467.75
2019-01-12T16:57:15.408Z,100459.89
2019-01-12T16:59:44.116Z,100457.53
2019-01-12T17:02:12.833Z,100442.12
2019-01-12T17:04:41.589Z,100440.02
2019-01-12T17:07:10.271Z,100436.17
2019-01-12T17:09:39.052Z,100435.50
2019-01-12T17:12:07.806Z,100425.91
2019-01-12T17:14:36.543Z,100423.77
2019-01-12T17:17:05.397Z,100422.91
2019-01-12T17:19:34.152Z,100416.63
2019-01-12T17:24:51.745Z,100410.82
2019-01-12T17:27:23.903Z,100405.52
2019-01-12T17:30:17.377Z,100411.31
2019-01-12T17:35:23.447Z,100403.99
2019-01-12T17:37:53.429Z,100408.66
2019-01-12T17:40:39.196Z,100398.08
2019-01-12T17:43:28.102Z,100398.88
2019-01-12T17:52:21.324Z,100382.45
2019-01-12T17:55:36.540Z,100372.52
2019-01-12T18:00:56.897Z,100368.39
2019-01-12T18:03:26.184Z,100356.78
2019-01-12T18:08:56.753Z,100345.32
2019-01-12T18:11:26.223Z,100345.48
2019-01-12T18:13:55.166Z,100344.16
2019-01-12T18:16:24.004Z,100346.34
2019-01-12T18:19:13.018Z,100337.36
2019-01-12T18:21:41.926Z,100327.59
2019-01-12T18:24:31.501Z,100324.47
2019-01-12T18:27:00.469Z,100322.11
2019-01-12T18:32:51.438Z,100311.98
2019-01-12T18:35:20.386Z,100317.28
2019-01-12T18:43:30.827Z,100317.27
2019-01-12T18:45:59.708Z,100314.14
2019-01-12T18:48:28.649Z,100313.16
2019-01-12T18:50:57.893Z,100311.00
2019-01-12T18:57:07.976Z,100313.85
2019-01-12T19:00:18.632Z,100307.34
2019-01-12T19:02:45.786Z,100306.38
2019-01-12T19:08:28.997Z,100301.25
2019-01-12T19:11:24.074Z,100304.21
2019-01-12T19:13:52.952Z,100308.36
2019-01-12T19:16:40.912Z,100307.21
2019-01-12T19:22:04.280Z,100308.05
2019-01-12T19:24:33.239Z,100307.54
2019-01-12T19:27:02.603Z,100307.39
2019-01-12T19:29:31.911Z,100299.74
2019-01-12T19:32:06.503Z,100299.26
2019-01-12T19:34:35.336Z,100297.58
2019-01-12T19:37:07.246Z,100307.89
2019-01-12T19:39:36.097Z,100300.59
2019-01-12T19:48:30.065Z,100306.20
2019-01-12T19:54:47.892Z,100309.70
2019-01-12T19:57:19.761Z,100300.41
2019-01-12T20:03:03.444Z,100300.59
2019-01-12T20:05:36.718Z,100295.47
2019-01-12T20:08:05.736Z,100294.46
2019-01-12T20:10:55.218Z,100290.97
2019-01-12T20:13:25.084Z,100290.31
2019-01-12T20:15:53.887Z,100282.21
2019-01-12T20:18:44.557Z,100285.84
2019-01-12T20:21:14.075Z,100267.10
2019-01-12T20:26:47.002Z,100248.06
2019-01-12T20:29:21.057Z,100235.29
2019-01-12T20:32:25.830Z,100244.25
2019-01-12T20:35:33.258Z,100234.98
2019-01-12T20:41:52.220Z,100218.23
2019-01-12T20:45:00.233Z,100220.39
2019-01-12T20:48:09.059Z,100223.53
2019-01-12T20:57:02.722Z,100227.19
2019-01-12T20:59:53.959Z,100220.86
2019-01-12T21:03:07.108Z,100221.39
2019-01-12T21:06:06.918Z,100214.06
2019-01-12T21:09:15.235Z,100216.59
2019-01-12T21:12:23.381Z,100208.47
2019-01-12T21:15:16.930Z,100212.77
2019-01-12T21:17:45.928Z,100215.56
2019-01-12T21:25:37.984Z,100213.45
2019-01-12T21:28:07.634Z,100231.18
2019-01-12T21:30:37.313Z,100224.73
2019-01-12T21:33:15.418Z,100229.36
2019-01-12T21:35:45.541Z,100246.73
2019-01-12T21:38:15.692Z,100233.64
2019-01-12T21:40:45.449Z,100228.51
2019-01-12T21:49:03.960Z,100223.03
2019-01-12T21:54:42.315Z,100221.23
2019-01-12T22:00:59.129Z,100227.19
2019-01-12T22:06:25.487Z,100221.22
2019-01-12T22:08:55.872Z,100219.20
2019-01-12T22:11:24.784Z,100216.56
2019-01-12T22:13:53.983Z,100214.59
2019-01-12T22:16:22.864Z,100202.64
2019-01-12T22:18:54.416Z,100208.91
2019-01-12T22:30:34.314Z,100225.84
2019-01-12T22:35:59.139Z,100215.41
2019-01-12T22:38:55.882Z,100214.23
2019-01-12T22:40:58.724Z,100200.30
2019-01-12T22:43:29.979Z,100197.95
2019-01-12T22:45:58.876Z,100199.80
2019-01-12T22:48:27.968Z,100195.64
2019-01-12T22:54:41.450Z,100185.38
2019-01-12T23:00:02.825Z,100179.06
2019-01-12T23:02:32.289Z,100176.91
2019-01-12T23:08:29.197Z,100181.05
2019-01-12T23:11:17.145Z,100172.72
2019-01-12T23:16:40.861Z,100170.76
2019-01-12T23:19:09.711Z,100168.12
2019-01-12T23:21:38.861Z,100168.77
2019-01-12T23:24:07.912Z,100172.27
2019-01-12T23:26:36.645Z,100165.63
2019-01-12T23:29:27.027Z,100164.14
2019-01-12T23:31:56.020Z,100168.44
2019-01-12T23:34:25.278Z,100164.62
2019-01-12T23:36:54.750Z,100170.58
2019-01-12T23:39:23.511Z,100167.44
2019-01-12T23:41:54.792Z,100161.44
2019-01-12T23:44:23.653Z,100151.47
2019-01-12T23:46:54.756Z,100155.95
2019-01-12T23:49:42.790Z,100151.48
2019-01-12T23:52:11.789Z,100153.95
